Time;durP1;ratioP1;P1;durP2;ratioP2;P2;SDS_P1;SDS_P2;PMS_P1;PMS_P2;Temp;Humidity;BMP_temperature;BMP_pressure;BME280_temperature;BME280_humidity;BME280_pressure;Samples;Min_cycle;Max_cycle;Signal;HPM_P1;HPM_P2
2023/04/01 00:00:59;;;;;;;5.60;1.42;;;9.80;99.90;;;9.96;100.00;98681.81;4862411;29;20049;-79
2023/04/01 00:03:26;;;;;;;6.30;1.30;;;9.80;99.90;;;9.93;100.00;98686.72;4861627;29;20048;-80
2023/04/01 00:05:55;;;;;;;4.60;1.42;;;9.80;99.90;;;9.90;100.00;98676.34;4862079;29;20485;-80
2023/04/01 00:08:20;;;;;;;;;;;9.80;99.90;;;9.91;100.00;98677.97;4866457;29;20497;-81
2023/04/01 00:10:46;;;;;;;4.75;1.40;;;9.80;99.90;;;9.89;100.00;98680.16;4867262;29;19930;-80
2023/04/01 00:13:13;;;;;;;7.18;1.58;;;9.80;99.90;;;9.83;100.00;98664.00;4862017;29;20500;-80
2023/04/01 00:15:38;;;;;;;9.23;1.50;;;9.80;99.90;;;9.90;100.00;98681.78;4858484;29;20037;-79
2023/04/01 00:18:05;;;;;;;5.28;1.40;;;9.80;99.90;;;9.94;100.00;98668.44;4862005;29;20045;-80
2023/04/01 00:20:30;;;;;;;4.90;1.50;;;9.90;99.90;;;10.00;100.00;98682.94;4865441;29;20538;-79
2023/04/01 00:22:56;;;;;;;6.50;1.40;;;9.90;99.90;;;9.95;100.00;98678.28;4862019;29;20046;-80
2023/04/01 00:25:23;;;;;;;6.45;1.58;;;9.90;99.90;;;10.01;100.00;98673.69;4863399;29;20050;-80
2023/04/01 00:27:49;;;;;;;6.65;1.90;;;9.90;99.90;;;9.90;100.00;98665.44;4845119;29;20029;-79
2023/04/01 00:30:16;;;;;;;7.00;1.73;;;9.90;99.90;;;9.97;100.00;98686.19;4862455;29;20060;-80
2023/04/01 00:32:42;;;;;;;4.93;1.65;;;9.90;99.90;;;9.86;100.00;98671.66;4862532;29;20482;-80
2023/04/01 00:35:08;;;;;;;5.72;1.27;;;9.80;99.90;;;9.79;100.00;98677.31;4862410;29;20042;-81
2023/04/01 00:37:37;;;;;;;5.63;1.17;;;9.80;99.90;;;9.68;100.00;98654.66;4861125;29;20049;-79
2023/04/01 00:40:21;;;;;;;5.45;1.33;;;9.70;99.90;;;9.64;100.00;98656.22;4860792;29;20048;-79
2023/04/01 00:42:47;;;;;;;4.10;1.33;;;9.70;99.90;;;9.67;100.00;98668.53;4867385;29;20040;-78
2023/04/01 00:45:44;;;;;;;6.07;1.30;;;9.60;99.90;;;9.66;100.00;98673.13;4860488;29;20029;-78
2023/04/01 00:48:30;;;;;;;4.78;1.10;;;9.60;99.90;;;9.59;100.00;98665.19;4848025;29;20141;-77
2023/04/01 00:51:01;;;;;;;5.90;1.50;;;9.60;99.90;;;9.53;100.00;98666.22;4836916;29;20113;-77
2023/04/01 00:53:30;;;;;;;4.65;1.15;;;9.50;99.90;;;9.53;100.00;98666.22;4861982;29;20064;-76
2023/04/01 00:56:08;;;;;;;6.65;1.30;;;9.40;99.90;;;9.53;100.00;98666.22;4871263;29;20378;-76
2023/04/01 00:58:40;;;;;;;7.72;1.50;;;9.40;99.90;;;9.51;100.00;98671.09;4861033;29;20061;-76
2023/04/01 01:01:09;;;;;;;5.65;1.38;;;9.30;99.90;;;9.45;100.00;98658.53;4844771;29;20084;-76
2023/04/01 01:03:36;;;;;;;4.70;1.30;;;9.30;99.90;;;9.52;100.00;98670.00;4869596;29;20119;-76
2023/04/01 01:06:21;;;;;;;6.30;1.42;;;9.20;99.90;;;9.50;100.00;98674.91;4865201;29;20466;-76
2023/04/01 01:09:03;;;;;;;6.68;1.20;;;9.30;99.90;;;9.37;100.00;98662.53;4865439;29;20113;-76
2023/04/01 01:12:00;;;;;;;7.00;1.40;;;9.20;99.90;;;9.41;100.00;98666.38;4850120;29;20521;-76
2023/04/01 01:15:05;;;;;;;9.45;1.45;;;9.20;99.90;;;9.40;100.00;98661.19;4866200;29;20048;-77
2023/04/01 01:18:01;;;;;;;6.45;1.35;;;9.20;99.90;;;9.33;100.00;98662.25;4847804;29;20037;-77
2023/04/01 01:20:55;;;;;;;4.28;1.23;;;9.10;99.90;;;9.29;100.00;98657.56;4861630;29;20090;-77
2023/04/01 01:23:53;;;;;;;4.93;1.60;;;9.10;99.90;;;9.26;100.00;98658.88;4861433;29;20370;-76
2023/04/01 01:27:03;;;;;;;7.15;1.63;;;9.10;99.90;;;9.19;100.00;98647.38;4861478;29;20037;-77
2023/04/01 01:29:41;;;;;;;5.40;1.40;;;9.10;99.90;;;9.29;100.00;98660.28;4833906;29;20497;-76
2023/04/01 01:32:28;;;;;;;3.28;1.10;;;9.10;99.90;;;9.28;100.00;98662.19;4862753;29;20049;-76
2023/04/01 01:35:19;;;;;;;7.10;1.42;;;9.10;99.90;;;9.28;100.00;98659.47;4871624;29;20402;-77
2023/04/01 01:37:51;;;;;;;5.20;1.20;;;9.10;99.90;;;9.17;100.00;98647.66;4852638;29;20037;-76
2023/04/01 01:40:19;;;;;;;4.28;1.08;;;9.00;99.90;;;9.13;100.00;98651.94;4853994;29;20541;-76
2023/04/01 01:42:51;;;;;;;4.03;0.90;;;9.10;99.90;;;9.20;100.00;98657.19;4859244;29;20128;-76
2023/04/01 01:45:23;;;;;;;5.60;1.27;;;9.10;99.90;;;9.20;100.00;98652.59;4861033;29;20041;-76
2023/04/01 01:47:51;;;;;;;4.05;1.00;;;9.10;99.90;;;9.17;100.00;98658.53;4860359;29;20186;-76
2023/04/01 01:50:19;;;;;;;6.88;1.25;;;9.00;99.90;;;9.11;100.00;98658.75;4848548;29;20037;-76
2023/04/01 01:52:45;;;;;;;;;;;9.00;99.90;;;9.14;100.00;98655.50;4850260;29;20072;-77
2023/04/01 01:55:36;;;;;;;5.45;0.80;;;9.00;99.90;;;9.13;100.00;98653.88;4862440;29;19927;-76
2023/04/01 01:58:32;;;;;;;3.58;0.93;;;9.00;99.90;;;9.09;100.00;98650.81;4832772;29;20041;-76
2023/04/01 02:01:05;;;;;;;3.58;0.80;;;9.00;99.90;;;9.08;100.00;98651.91;4847598;29;20097;-77
2023/04/01 02:03:36;;;;;;;5.25;0.90;;;9.00;99.90;;;9.09;100.00;98658.97;4859955;29;20105;-77
2023/04/01 02:06:08;;;;;;;4.63;0.73;;;9.00;99.90;;;9.09;100.00;98663.63;4864062;29;20060;-77
2023/04/01 02:08:49;;;;;;;4.15;0.90;;;9.00;99.90;;;9.09;100.00;98667.16;4859799;29;20402;-77
2023/04/01 02:11:19;;;;;;;3.10;0.60;;;9.00;99.90;;;9.09;100.00;98661.72;4859102;29;20060;-77
2023/04/01 02:14:05;;;;;;;3.92;0.77;;;9.00;99.90;;;9.05;100.00;98661.41;4828618;29;20033;-76
2023/04/01 02:16:58;;;;;;;7.10;1.00;;;8.90;99.90;;;9.01;100.00;98654.81;4844466;29;20335;-77
2023/04/01 02:19:45;;;;;;;3.03;0.80;;;8.90;99.90;;;9.04;100.00;98659.78;4863432;29;20316;-77
2023/04/01 02:22:21;;;;;;;2.03;0.60;;;8.90;99.90;;;9.01;100.00;98665.69;4854452;29;20063;-77
2023/04/01 02:24:50;;;;;;;4.03;0.90;;;8.80;99.90;;;9.02;100.00;98672.81;4866486;29;20561;-77
2023/04/01 02:27:16;;;;;;;3.72;1.00;;;8.80;99.90;;;8.94;100.00;98670.53;4862754;29;20106;-77
2023/04/01 02:29:42;;;;;;;6.75;0.80;;;8.80;99.90;;;8.94;100.00;98651.47;4862607;29;20041;-77
2023/04/01 02:32:10;;;;;;;4.60;0.70;;;8.90;99.90;;;8.91;100.00;98666.44;4862357;29;20041;-77
2023/04/01 02:34:36;;;;;;;3.80;0.82;;;8.80;99.90;;;8.87;100.00;98665.25;4864016;29;20144;-75
2023/04/01 02:37:03;;;;;;;3.70;0.80;;;8.80;99.90;;;8.76;100.00;98653.47;4862480;29;20033;-75
2023/04/01 02:39:29;;;;;;;3.40;0.93;;;8.80;99.90;;;8.73;100.00;98651.25;4862515;29;20084;-75
2023/04/01 02:41:55;;;;;;;2.95;0.85;;;8.80;99.90;;;8.84;100.00;98671.22;4862592;29;20486;-76
2023/04/01 02:44:21;;;;;;;2.80;0.90;;;8.80;99.90;;;8.84;100.00;98659.53;4866386;29;20045;-76
2023/04/01 02:46:46;;;;;;;4.70;0.90;;;8.80;99.90;;;8.76;100.00;98649.91;4854154;29;20051;-76
2023/04/01 02:49:12;;;;;;;3.60;0.98;;;8.80;99.90;;;8.89;100.00;98667.75;4863047;29;20037;-76
2023/04/01 02:51:38;;;;;;;3.70;1.00;;;8.80;99.90;;;8.89;100.00;98673.19;4831215;29;20037;-75
2023/04/01 02:54:04;;;;;;;2.90;0.95;;;8.80;99.90;;;8.99;100.00;98669.75;4844227;29;20037;-76
2023/04/01 02:56:30;;;;;;;2.63;0.90;;;8.80;99.90;;;8.94;100.00;98670.53;4846793;29;20118;-76
2023/04/01 02:58:56;;;;;;;3.83;0.80;;;8.80;99.90;;;8.87;100.00;98667.19;4863578;29;20045;-76
2023/04/01 03:01:23;;;;;;;5.18;0.77;;;8.80;99.90;;;8.91;100.00;98680.03;4863416;29;20138;-76
2023/04/01 03:03:49;;;;;;;2.75;0.98;;;8.80;99.90;;;8.94;100.00;98675.97;4846232;29;20546;-76
2023/04/01 03:06:16;;;;;;;3.33;0.80;;;8.80;99.90;;;8.88;100.00;98676.97;4847153;29;20166;-76
2023/04/01 03:08:44;;;;;;;1.73;0.80;;;8.80;99.90;;;8.82;100.00;98672.56;4850832;29;20040;-75
2023/04/01 03:11:12;;;;;;;3.28;1.40;;;8.80;99.90;;;8.90;100.00;98669.38;4862243;29;20400;-78
2023/04/01 03:13:37;;;;;;;4.00;1.30;;;8.80;99.90;;;8.85;100.00;98674.78;4862811;29;20065;-76
2023/04/01 03:16:04;;;;;;;5.15;0.98;;;8.80;99.90;;;8.83;100.00;98666.03;4865140;29;20438;-77
2023/04/01 03:18:30;;;;;;;3.38;1.02;;;8.80;99.90;;;8.87;100.00;98675.34;4862698;29;20033;-76
2023/04/01 03:20:56;;;;;;;3.10;0.80;;;8.80;99.90;;;8.82;100.00;98669.84;4846167;29;20077;-76
2023/04/01 03:23:24;;;;;;;4.47;1.10;;;8.70;99.90;;;8.88;100.00;98672.34;4846638;29;20375;-77
2023/04/01 03:25:50;;;;;;;3.13;1.00;;;8.70;99.90;;;8.96;100.00;98671.09;4862107;29;20037;-76
2023/04/01 03:28:16;;;;;;;4.07;1.00;;;8.70;99.90;;;8.94;100.00;98669.72;4860919;29;20037;-76
2023/04/01 03:30:42;;;;;;;4.40;1.17;;;8.80;99.90;;;8.82;100.00;98667.94;4819545;29;20407;-77
2023/04/01 03:33:10;;;;;;;4.57;1.10;;;8.70;99.90;;;8.91;100.00;98671.03;4824709;29;20053;-78
2023/04/01 03:35:35;;;;;;;3.28;1.10;;;8.70;99.90;;;8.87;100.00;98673.44;4840124;29;20058;-77
2023/04/01 03:38:02;;;;;;;4.20;1.20;;;8.70;99.90;;;8.78;100.00;98667.63;4823750;29;20068;-76
2023/04/01 03:40:27;;;;;;;3.92;1.27;;;8.70;99.90;;;8.88;100.00;98677.78;4824875;29;20065;-76
2023/04/01 03:42:53;;;;;;;2.95;0.95;;;8.70;99.90;;;8.88;100.00;98679.69;4824477;29;20437;-76
2023/04/01 03:45:19;;;;;;;4.00;1.02;;;8.70;99.90;;;8.87;100.00;98675.34;4840592;29;20038;-76
2023/04/01 03:47:45;;;;;;;4.13;1.00;;;8.60;99.90;;;8.84;100.00;98673.13;4824691;29;20085;-76
2023/04/01 03:50:11;;;;;;;2.33;1.02;;;8.60;99.90;;;8.87;100.00;98686.22;4832877;29;20050;-76
2023/04/01 03:52:36;;;;;;;2.45;1.33;;;8.70;99.90;;;8.84;100.00;98673.13;4840485;29;20044;-76
2023/04/01 03:55:03;;;;;;;2.70;1.17;;;8.60;99.90;;;8.89;100.00;98682.19;4825971;29;20490;-76
2023/04/01 03:57:31;;;;;;;3.42;1.10;;;8.70;99.90;;;8.78;100.00;98667.63;4823394;29;20038;-76
2023/04/01 04:00:03;;;;;;;5.88;1.13;;;8.60;99.90;;;8.81;100.00;98674.44;4824330;29;20077;-76
2023/04/01 04:02:39;;;;;;;6.25;1.25;;;8.60;99.90;;;8.77;100.00;98676.03;4830764;29;20372;-75
2023/04/01 04:05:06;;;;;;;4.20;1.30;;;8.60;99.90;;;8.82;100.00;98680.72;4828050;29;20098;-75
2023/04/01 04:07:35;;;;;;;2.75;1.00;;;8.60;99.90;;;8.76;100.00;98677.94;4824553;29;20034;-75
2023/04/01 04:10:06;;;;;;;4.45;1.40;;;8.60;99.90;;;8.80;100.00;98675.53;4834520;29;20076;-75
2023/04/01 04:12:32;;;;;;;4.97;1.60;;;8.60;99.90;;;8.80;100.00;98685.59;4830056;29;20165;-76
2023/04/01 04:15:01;;;;;;;5.25;1.50;;;8.60;99.90;;;8.75;100.00;98679.03;4823753;29;20057;-76
2023/04/01 04:17:33;;;;;;;7.28;1.65;;;8.60;99.90;;;8.74;100.00;98682.78;4823738;29;20521;-75
2023/04/01 04:19:59;;;;;;;4.70;1.70;;;8.60;99.90;;;8.73;100.00;98681.16;4823416;29;20042;-76
2023/04/01 04:22:25;;;;;;;4.20;1.25;;;8.60;99.90;;;8.81;100.00;98688.03;4829345;29;20043;-76
2023/04/01 04:24:51;;;;;;;3.05;1.40;;;8.60;99.90;;;8.82;100.00;98684.25;4824166;29;20096;-75
2023/04/01 04:27:17;;;;;;;6.15;1.33;;;8.70;99.90;;;8.80;100.00;98686.41;4839724;29;20042;-76
2023/04/01 04:29:52;;;;;;;3.33;1.10;;;8.70;99.90;;;8.82;100.00;98684.25;4833360;29;20424;-76
2023/04/01 04:32:18;;;;;;;3.30;1.27;;;8.60;99.90;;;8.77;100.00;98682.31;4865808;29;20041;-75
2023/04/01 04:34:44;;;;;;;2.55;1.02;;;8.70;99.90;;;8.76;100.00;98677.94;4861895;29;20041;-75
2023/04/01 04:37:09;;;;;;;3.97;1.02;;;8.70;99.90;;;8.75;100.00;98683.63;4861715;29;20080;-75
2023/04/01 04:39:36;;;;;;;5.70;1.35;;;8.70;99.90;;;8.76;100.00;98686.09;4844550;29;20447;-76
2023/04/01 04:42:02;;;;;;;5.45;1.40;;;8.70;99.90;;;8.77;100.00;98685.03;4834613;29;20048;-76
2023/04/01 04:44:28;;;;;;;3.65;1.10;;;8.60;99.90;;;8.70;100.00;98692.53;4820333;29;20041;-75
2023/04/01 04:46:54;;;;;;;6.90;1.42;;;8.70;99.90;;;8.62;100.00;98685.66;4844760;29;20050;-76
2023/04/01 04:49:20;;;;;;;5.22;1.73;;;8.60;99.90;;;8.66;100.00;98694.09;4832176;29;20045;-75
2023/04/01 04:51:48;;;;;;;5.32;1.30;;;8.60;99.90;;;8.69;100.00;98690.88;4845096;29;20045;-75
2023/04/01 04:54:15;;;;;;;3.70;1.08;;;8.60;99.90;;;8.67;100.00;98682.16;4829723;29;20041;-76
2023/04/01 04:57:01;;;;;;;3.30;1.00;;;8.60;99.90;;;8.71;100.00;98694.16;4862962;29;20034;-76
2023/04/01 04:59:31;;;;;;;5.93;1.52;;;8.60;99.90;;;8.72;100.00;98693.09;4844650;29;20550;-76
2023/04/01 05:02:06;;;;;;;4.30;1.92;;;8.60;99.90;;;8.70;100.00;98697.97;4860769;29;20033;-76
2023/04/01 05:04:36;;;;;;;3.25;1.10;;;8.60;99.90;;;8.66;100.00;98691.38;4859352;29;20032;-77
2023/04/01 05:07:02;;;;;;;4.90;1.70;;;8.60;99.90;;;8.68;100.00;98700.13;4859670;29;20030;-76
2023/04/01 05:09:31;;;;;;;5.47;1.42;;;8.60;99.90;;;8.67;100.00;98697.66;4860158;29;20081;-76
2023/04/01 05:11:56;;;;;;;4.85;1.48;;;8.60;99.90;;;8.66;100.00;98696.81;4857966;29;20056;-76
2023/04/01 05:14:24;;;;;;;4.10;1.58;;;8.60;99.90;;;8.61;100.00;98694.84;4860165;29;20488;-76
2023/04/01 05:16:59;;;;;;;3.78;1.40;;;8.60;99.90;;;8.65;100.00;98703.34;4853762;29;20091;-78
2023/04/01 05:19:25;;;;;;;5.72;1.42;;;8.60;99.90;;;8.71;100.00;98699.59;4860196;29;20069;-76
2023/04/01 05:21:52;;;;;;;3.90;1.52;;;8.60;99.90;;;8.70;100.00;98702.59;4860707;29;20082;-75
2023/04/01 05:24:18;;;;;;;8.55;1.70;;;8.60;99.90;;;8.73;100.00;98702.91;4860310;29;20363;-76
2023/04/01 05:26:44;;;;;;;5.47;1.80;;;8.60;99.90;;;8.68;100.00;98697.41;4851482;29;20046;-76
2023/04/01 05:29:10;;;;;;;4.32;1.48;;;8.70;99.90;;;8.63;100.00;98698.16;4852903;29;20033;-76
2023/04/01 05:31:36;;;;;;;3.78;1.85;;;8.70;99.90;;;8.68;100.00;98702.84;4850374;29;20045;-76
2023/04/01 05:34:03;;;;;;;6.63;2.10;;;8.60;99.90;;;8.71;100.00;98705.03;4859528;29;20033;-75
2023/04/01 05:36:29;;;;;;;3.85;1.80;;;8.70;99.90;;;8.68;100.00;98708.28;4843912;29;20044;-76
2023/04/01 05:38:56;;;;;;;9.70;2.17;;;8.70;99.90;;;8.73;100.00;98711.06;4843564;29;20049;-76
2023/04/01 05:41:24;;;;;;;5.93;1.95;;;8.70;99.90;;;8.68;100.00;98697.41;4859518;29;20040;-75
2023/04/01 05:43:50;;;;;;;5.63;2.22;;;8.70;99.90;;;8.86;100.00;98709.03;4860187;29;20406;-76
2023/04/01 05:46:34;;;;;;;7.18;2.40;;;8.70;99.90;;;8.80;100.00;98712.78;4860973;29;20087;-76
2023/04/01 05:49:14;;;;;;;6.05;2.25;;;8.70;99.90;;;8.85;100.00;98705.50;4856986;29;20097;-76
2023/04/01 05:51:40;;;;;;;8.45;2.38;;;8.70;99.90;;;8.78;100.00;98708.41;4859097;29;20409;-77
2023/04/01 05:54:08;;;;;;;5.15;2.42;;;8.80;99.90;;;8.76;100.00;98705.13;4844736;29;20076;-77
2023/04/01 05:56:33;;;;;;;5.53;2.50;;;8.80;99.90;;;8.83;100.00;98712.28;4860523;29;20109;-77
2023/04/01 05:58:59;;;;;;;5.72;2.60;;;8.80;99.90;;;8.89;100.00;98714.81;4828256;29;20042;-77
2023/04/01 06:01:25;;;;;;;7.10;2.70;;;8.90;99.90;;;8.91;100.00;98718.09;4868501;29;20063;-76
2023/04/01 06:03:51;;;;;;;5.70;2.80;;;8.90;99.90;;;9.02;100.00;98720.94;4858579;29;20086;-76
2023/04/01 06:06:26;;;;;;;10.13;4.47;;;8.90;99.90;;;9.10;100.00;98719.66;4869202;29;20057;-78
2023/04/01 06:09:05;;;;;;;6.63;3.10;;;9.00;99.90;;;9.04;100.00;98718.78;4871409;29;20044;-77
2023/04/01 06:11:51;;;;;;;6.88;2.97;;;9.00;99.90;;;9.19;100.00;98731.72;4866656;29;20080;-77
2023/04/01 06:14:38;;;;;;;6.00;2.88;;;9.00;99.90;;;9.21;100.00;98729.56;4855661;29;20048;-77
2023/04/01 06:17:52;;;;;;;6.45;3.55;;;9.10;99.90;;;9.25;100.00;98736.16;4861684;29;20033;-76
2023/04/01 06:20:53;;;;;;;6.07;2.97;;;9.20;99.90;;;9.38;100.00;98745.81;4840448;29;20041;-77
2023/04/01 06:24:21;;;;;;;7.03;3.20;;;9.20;99.90;;;9.35;100.00;98755.34;4864369;29;20041;-77
2023/04/01 06:27:16;;;;;;;7.53;3.28;;;9.30;99.90;;;9.44;100.00;98749.41;4855784;29;20162;-78
2023/04/01 06:30:22;;;;;;;9.10;3.83;;;9.40;99.90;;;9.33;100.00;98743.88;4863459;29;20033;-77
2023/04/01 06:33:15;;;;;;;7.18;3.47;;;9.40;99.90;;;9.67;100.00;98764.63;4870424;29;20033;-80
2023/04/01 06:35:56;;;;;;;7.85;3.25;;;9.60;99.90;;;9.55;100.00;98753.91;4862413;29;20053;-81
2023/04/01 06:38:57;;;;;;;6.97;3.20;;;9.60;99.90;;;9.69;100.00;98769.81;4857061;29;20045;-76
2023/04/01 06:42:00;;;;;;;5.43;3.00;;;9.70;99.90;;;9.76;100.00;98762.25;4869566;29;20045;-78
2023/04/01 06:45:00;;;;;;;6.50;3.13;;;9.70;99.90;;;9.87;100.00;98758.56;4868587;29;20033;-80
2023/04/01 06:48:28;;;;;;;6.18;3.20;;;9.80;99.90;;;9.93;100.00;98762.97;4866448;29;20045;-77
2023/04/01 06:52:03;;;;;;;6.00;2.80;;;10.00;99.90;;;10.15;100.00;98777.59;4845961;29;20443;-76
2023/04/01 06:55:01;;;;;;;5.60;2.67;;;10.00;99.90;;;10.04;100.00;98772.06;4849806;29;20101;-76
2023/04/01 06:57:52;;;;;;;5.20;2.70;;;10.00;99.90;;;10.12;100.00;98781.69;4871227;29;20117;-76
2023/04/01 07:00:30;;;;;;;6.57;2.75;;;10.10;99.90;;;10.04;100.00;98784.84;4864187;29;20606;-78
2023/04/01 07:03:26;;;;;;;6.35;2.40;;;10.10;99.90;;;9.99;100.00;98790.25;4845428;29;20034;-78
2023/04/01 07:05:55;;;;;;;7.53;1.80;;;10.10;99.90;;;9.93;100.00;98798.38;4867148;29;20042;-76
2023/04/01 07:08:28;;;;;;;4.55;2.40;;;10.00;99.90;;;10.16;100.00;98792.84;4862229;29;20393;-77
2023/04/01 07:11:02;;;;;;;7.45;2.20;;;10.10;99.90;;;10.30;100.00;98798.69;4852858;29;20034;-77
2023/04/01 07:14:04;;;;;;;7.25;1.88;;;10.30;99.90;;;10.19;100.00;98778.72;4861915;29;20141;-78
2023/04/01 07:16:41;;;;;;;6.22;1.75;;;10.30;99.90;;;10.26;100.00;98808.47;4850817;29;20041;-78
2023/04/01 07:19:21;;;;;;;3.75;1.58;;;10.40;99.90;;;10.29;100.00;98803.34;4866405;29;20179;-79
2023/04/01 07:22:40;;;;;;;5.75;1.60;;;10.30;99.90;;;10.59;100.00;98810.13;4872072;29;20045;-77
2023/04/01 07:25:36;;;;;;;6.70;1.65;;;10.50;99.90;;;10.65;100.00;98820.00;4835694;29;20045;-77
2023/04/01 07:28:22;;;;;;;3.67;1.50;;;10.60;99.90;;;10.79;100.00;98825.00;4864883;29;20055;-80
2023/04/01 07:31:45;;;;;;;4.00;1.58;;;10.70;99.90;;;10.97;100.00;98828.38;4863038;29;20064;-76
2023/04/01 07:34:27;;;;;;;4.53;1.90;;;10.90;99.90;;;10.81;100.00;98806.47;4864100;29;20116;-76
2023/04/01 07:37:22;;;;;;;4.25;1.40;;;10.90;99.90;;;10.73;100.00;98840.50;4859357;29;20093;-77
2023/04/01 07:40:07;;;;;;;6.70;1.75;;;10.90;99.90;;;10.72;100.00;98833.41;4843397;29;20038;-76
2023/04/01 07:43:15;;;;;;;3.53;1.40;;;10.90;99.90;;;10.70;100.00;98843.75;4859366;29;20723;-75
2023/04/01 07:46:33;;;;;;;3.05;1.15;;;10.80;99.90;;;10.98;100.00;98849.94;4872691;29;20060;-78
2023/04/01 07:49:15;;;;;;;3.45;1.20;;;10.90;99.90;;;10.90;100.00;98855.91;4872415;29;20132;-75
2023/04/01 07:52:05;;;;;;;4.03;1.20;;;10.90;99.90;;;10.98;100.00;98833.56;4854936;29;20113;-77
2023/04/01 07:55:06;;;;;;;3.15;1.20;;;11.00;99.90;;;10.93;100.00;98855.38;4853864;29;20477;-77
2023/04/01 07:58:18;;;;;;;4.00;1.40;;;11.00;99.90;;;10.85;100.00;98844.94;4851950;29;20041;-76
2023/04/01 08:01:01;;;;;;;5.72;1.45;;;11.00;99.90;;;11.17;100.00;98863.16;4864687;29;20485;-77
2023/04/01 08:04:15;;;;;;;3.55;1.02;;;11.10;99.90;;;11.17;100.00;98860.44;4858793;29;20025;-77
2023/04/01 08:07:13;;;;;;;3.47;1.02;;;11.30;99.90;;;11.19;100.00;98863.72;4867778;29;20030;-77
2023/04/01 08:10:23;;;;;;;2.83;0.90;;;11.20;99.90;;;11.28;100.00;98875.75;4846590;29;20044;-76
2023/04/01 08:14:01;;;;;;;2.72;0.98;;;11.20;99.90;;;11.83;100.00;98872.72;4809363;29;20054;-78
2023/04/01 08:17:16;;;;;;;3.22;1.20;;;11.40;99.90;;;11.94;100.00;98879.88;4862086;29;20686;-78
2023/04/01 08:20:19;;;;;;;5.15;0.90;;;11.60;99.90;;;12.15;100.00;98877.19;4859670;29;20068;-77
2023/04/01 08:22:56;;;;;;;3.15;1.00;;;11.80;99.90;;;11.58;100.00;98877.00;4868129;29;20393;-81
2023/04/01 08:25:31;;;;;;;2.38;0.80;;;11.70;99.90;;;11.26;100.00;98886.13;4881420;29;20037;-78
2023/04/01 08:28:16;;;;;;;1.85;0.98;;;11.50;99.90;;;11.42;100.00;98878.03;4872371;29;20553;-76
2023/04/01 08:31:09;;;;;;;2.05;0.70;;;11.60;99.90;;;11.62;100.00;98889.00;4868445;29;20052;-79
2023/04/01 08:33:38;;;;;;;3.42;0.80;;;11.70;99.90;;;11.71;100.00;98885.78;4863520;29;20428;-77
2023/04/01 08:36:24;;;;;;;3.65;0.80;;;11.80;99.90;;;11.84;100.00;98890.75;4843058;29;20530;-76
2023/04/01 08:39:28;;;;;;;4.55;1.10;;;11.90;99.90;;;12.20;100.00;98890.88;4847670;29;20040;-76
2023/04/01 08:42:51;;;;;;;3.13;0.75;;;12.20;99.90;;;12.39;100.00;98893.06;4859842;29;20048;-78
2023/04/01 08:45:40;;;;;;;1.80;0.60;;;12.40;99.90;;;12.36;100.00;98888.16;4861758;29;20037;-80
2023/04/01 08:48:27;;;;;;;2.95;0.50;;;12.60;99.90;;;12.44;100.00;98879.41;4866656;29;20255;-79
2023/04/01 08:51:27;;;;;;;2.50;0.52;;;12.60;99.90;;;12.60;100.00;98890.38;4860088;29;20044;-78
2023/04/01 08:54:18;;;;;;;1.40;0.40;;;12.80;99.90;;;12.46;100.00;98898.28;4857219;29;20234;-79
2023/04/01 08:57:08;;;;;;;1.85;0.60;;;12.70;99.90;;;12.77;100.00;98901.88;4863057;29;20062;-79
2023/04/01 09:00:01;;;;;;;2.22;0.70;;;13.00;99.90;;;12.60;100.00;98899.41;4844015;29;20060;-79
2023/04/01 09:03:11;;;;;;;0.95;0.50;;;13.00;99.90;;;12.56;100.00;98895.53;4861934;29;20038;-77
2023/04/01 09:06:25;;;;;;;2.35;0.80;;;12.90;99.90;;;12.54;100.00;98891.47;4860704;29;20029;-79
2023/04/01 09:09:32;;;;;;;2.88;0.73;;;12.80;99.90;;;12.89;100.00;98904.31;4859637;29;20064;-78
2023/04/01 09:12:34;;;;;;;2.85;0.75;;;13.00;99.90;;;12.93;100.00;98891.72;4854228;29;20037;-79
2023/04/01 09:15:08;;;;;;;2.63;0.73;;;13.10;99.90;;;12.90;96.79;98889.53;4859146;29;20047;-79
2023/04/01 09:18:03;;;;;;;2.88;0.60;;;13.20;99.90;;;12.74;96.03;98896.09;4866226;29;20037;-81
2023/04/01 09:21:17;;;;;;;3.25;0.60;;;13.10;99.90;;;12.95;98.01;98905.13;4844674;29;20045;-77
2023/04/01 09:24:30;;;;;;;1.63;0.65;;;13.00;99.90;;;12.94;97.92;98906.22;4844361;29;20040;-77
2023/04/01 09:27:31;;;;;;;1.27;0.50;;;13.20;99.90;;;12.94;95.20;98906.22;4860561;29;20042;-77
2023/04/01 09:30:22;;;;;;;2.40;0.70;;;13.20;99.90;;;13.35;100.00;98917.13;4860176;29;20048;-77
2023/04/01 09:33:43;;;;;;;1.42;0.52;;;13.50;99.90;;;13.42;95.58;98903.13;4860974;29;20545;-77
2023/04/01 09:36:29;;;;;;;1.50;0.55;;;13.80;99.90;;;13.60;94.35;98903.63;4828272;29;20041;-80
2023/04/01 09:39:37;;;;;;;3.45;0.70;;;14.00;99.90;;;13.74;95.00;98928.50;4859314;29;20501;-77
2023/04/01 09:42:41;;;;;;;2.72;0.57;;;14.00;99.90;;;13.39;92.70;98922.84;4847472;29;20117;-77
2023/04/01 09:45:43;;;;;;;1.45;0.40;;;13.90;99.90;;;13.74;93.08;98929.34;4872665;29;20525;-76
2023/04/01 09:48:35;;;;;;;1.75;0.50;;;13.90;99.90;;;13.52;88.13;98910.50;4845013;29;20042;-76
2023/04/01 09:52:06;;;;;;;3.05;0.50;;;13.90;99.90;;;13.18;89.79;98917.41;4848690;29;20037;-76
2023/04/01 09:55:06;;;;;;;2.30;0.50;;;13.70;99.90;;;12.87;90.94;98931.16;4801414;29;20076;-76
2023/04/01 09:58:21;;;;;;;1.35;0.40;;;13.40;99.90;;;12.99;91.96;98932.78;4815966;29;20510;-76
2023/04/01 10:01:52;;;;;;;2.08;0.63;;;13.30;99.90;;;12.85;96.70;98943.44;4868648;29;20049;-75
2023/04/01 10:05:34;;;;;;;2.38;0.43;;;13.10;99.90;;;12.57;96.21;98945.63;4859297;29;20041;-76
2023/04/01 10:08:33;;;;;;;2.30;0.70;;;12.90;99.90;;;12.50;97.74;98956.81;4833376;29;20562;-78
2023/04/01 10:11:41;;;;;;;1.65;0.50;;;12.70;99.90;;;12.42;97.16;98960.91;4849480;29;20101;-74
2023/04/01 10:15:00;;;;;;;1.25;0.50;;;12.70;99.90;;;12.18;100.00;98960.56;4843923;29;20073;-74
2023/04/01 10:18:05;;;;;;;1.35;0.40;;;12.40;99.90;;;12.04;100.00;98954.78;4860456;29;20049;-74
2023/04/01 10:21:07;;;;;;;1.00;0.55;;;12.20;99.90;;;11.80;100.00;98969.72;4859911;29;20517;-75
2023/04/01 10:23:54;;;;;;;1.27;0.50;;;11.90;99.90;;;11.93;100.00;98975.75;4842797;29;20034;-75
2023/04/01 10:26:52;;;;;;;1.90;0.60;;;11.90;99.90;;;11.61;100.00;98980.25;4850674;29;20099;-75
2023/04/01 10:30:17;;;;;;;1.45;0.60;;;11.80;99.90;;;11.63;100.00;98971.78;4812331;29;20042;-74
2023/04/01 10:33:49;;;;;;;3.58;0.70;;;11.80;99.90;;;11.64;100.00;98976.97;4855998;29;20054;-75
2023/04/01 10:36:52;;;;;;;2.95;0.68;;;11.80;99.90;;;11.80;100.00;98972.44;4858504;29;20114;-74
2023/04/01 10:40:03;;;;;;;1.38;0.68;;;11.80;99.90;;;11.92;100.00;98964.00;4865829;29;20040;-75
2023/04/01 10:43:23;;;;;;;1.35;0.55;;;11.90;99.90;;;12.34;100.00;98975.94;4864564;29;20071;-75
2023/04/01 10:46:53;;;;;;;2.03;0.63;;;12.30;99.90;;;12.84;100.00;98966.44;4851205;29;20041;-74
2023/04/01 10:49:48;;;;;;;1.83;0.60;;;12.70;99.90;;;12.74;100.00;98970.81;4853670;29;20041;-75
2023/04/01 10:53:00;;;;;;;2.28;0.60;;;12.90;99.90;;;12.70;100.00;98968.88;4860948;29;20037;-77
2023/04/01 10:56:17;;;;;;;1.48;0.45;;;12.90;99.90;;;13.12;98.68;98973.25;4865253;29;20053;-77
2023/04/01 10:59:52;;;;;;;1.80;0.50;;;13.10;99.90;;;13.53;95.53;98972.44;4850915;29;20494;-77
2023/04/01 11:03:42;;;;;;;1.55;0.40;;;13.30;99.90;;;13.80;88.52;98972.06;4804059;29;20054;-76
2023/04/01 11:06:53;;;;;;;1.15;0.60;;;13.80;99.90;;;13.47;89.96;98962.56;4804452;29;20073;-76
2023/04/01 11:10:18;;;;;;;1.30;0.30;;;13.80;99.90;;;12.82;92.40;98977.63;4863108;29;20485;-75
2023/04/01 11:13:21;;;;;;;2.17;0.40;;;13.20;99.90;;;12.68;91.99;98985.56;4847231;29;20482;-77
2023/04/01 11:16:23;;;;;;;1.95;0.30;;;12.90;99.90;;;12.84;92.40;98983.66;4865111;29;20041;-75
2023/04/01 11:19:47;;;;;;;1.02;0.22;;;12.90;99.90;;;13.04;91.44;98992.97;4862207;29;20052;-75
2023/04/01 11:23:08;;;;;;;1.85;0.45;;;13.00;99.90;;;13.05;95.37;99000.94;4800108;29;20161;-76
2023/04/01 11:26:31;;;;;;;1.20;0.57;;;13.10;99.90;;;13.00;93.74;99006.41;4802550;29;20174;-76
2023/04/01 11:29:49;;;;;;;0.50;0.40;;;13.10;99.90;;;12.77;97.79;99011.31;4855358;29;20052;-76
2023/04/01 11:32:59;;;;;;;1.30;0.57;;;13.00;99.90;;;12.88;96.71;99011.31;4846643;29;20215;-76
2023/04/01 11:35:55;;;;;;;1.35;0.50;;;13.00;99.90;;;12.67;100.00;99022.22;4857420;29;20469;-77